Time,TemperatureF,DewpointF,PressureIn,WindDirection,WindDirectionDegrees,WindSpeedMPH,WindSpeedGustMPH,Humidity,HourlyPrecipIn,Conditions,Clouds,dailyrainin,SoftwareType,DateUTC
2013-01-05 00:06:00,45.4,-99.9,30.35,ENE,77,0.0,-999.0,0,-99.99,,,0.00,weatherlink.com 1.10,2013-01-05 05:06:00,
2013-01-05 00:21:00,45.1,-99.9,30.35,ENE,76,0.0,-999.0,0,-99.99,,,0.00,weatherlink.com 1.10,2013-01-05 05:21:00,
2013-01-05 00:36:00,44.9,-99.9,30.35,ENE,77,0.0,-999.0,0,-99.99,,,0.00,weatherlink.com 1.10,2013-01-05 05:36:00,
2013-01-05 00:51:00,44.7,-99.9,30.34,ENE,77,0.0,-999.0,0,-99.99,,,0.00,weatherlink.com 1.10,2013-01-05 05:51:00,
2013-01-05 01:06:00,44.8,-99.9,30.34,ENE,77,0.0,-999.0,0,-99.99,,,0.00,weatherlink.com 1.10,2013-01-05 06:06:00,
2013-01-05 01:21:00,44.6,-99.9,30.34,ENE,77,1.0,-999.0,0,-99.99,,,0.00,weatherlink.com 1.10,2013-01-05 06:21:00,
2013-01-05 01:36:00,44.9,-99.9,30.34,East,92,0.0,-999.0,0,-99.99,,,0.00,weatherlink.com 1.10,2013-01-05 06:36:00,
2013-01-05 01:51:00,44.6,-99.9,30.34,East,90,0.0,-999.0,0,-99.99,,,0.00,weatherlink.com 1.10,2013-01-05 06:51:00,
2013-01-05 02:21:00,43.8,-99.9,30.34,East,89,0.0,-999.0,0,-99.99,,,0.00,weatherlink.com 1.10,2013-01-05 07:21:00,
2013-01-05 02:36:00,43.5,-99.9,30.34,East,88,1.0,-999.0,0,-99.99,,,0.00,weatherlink.com 1.10,2013-01-05 07:36:00,
2013-01-05 02:51:00,43.1,-99.9,30.34,East,90,0.0,-999.0,0,-99.99,,,0.00,weatherlink.com 1.10,2013-01-05 07:51:00,
2013-01-05 03:06:00,42.3,-99.9,30.34,East,90,0.0,-999.0,0,-99.99,,,0.00,weatherlink.com 1.10,2013-01-05 08:06:00,
2013-01-05 03:22:00,41.7,-99.9,30.34,East,91,0.0,-999.0,0,-99.99,,,0.00,weatherlink.com 1.10,2013-01-05 08:22:00,
2013-01-05 03:37:00,41.5,-99.9,30.35,East,90,0.0,-999.0,0,-99.99,,,0.00,weatherlink.com 1.10,2013-01-05 08:37:00,
2013-01-05 03:52:00,41.4,-99.9,30.35,East,88,0.0,-999.0,0,-99.99,,,0.00,weatherlink.com 1.10,2013-01-05 08:52:00,
2013-01-05 04:07:00,40.9,-99.9,30.35,ESE,111,0.0,-999.0,0,-99.99,,,0.00,weatherlink.com 1.10,2013-01-05 09:07:00,
2013-01-05 04:22:00,40.7,-99.9,30.34,SSE,161,0.0,-999.0,0,-99.99,,,0.00,weatherlink.com 1.10,2013-01-05 09:22:00,
2013-01-05 04:37:00,40.6,-99.9,30.35,SE,144,0.0,-999.0,0,-99.99,,,0.00,weatherlink.com 1.10,2013-01-05 09:37:00,
2013-01-05 04:52:00,40.5,-99.9,30.35,South,169,1.0,-999.0,0,-99.99,,,0.00,weatherlink.com 1.10,2013-01-05 09:52:00,
2013-01-05 05:07:00,39.9,-99.9,30.36,SE,140,4.0,-999.0,0,-99.99,,,0.00,weatherlink.com 1.10,2013-01-05 10:07:00,
2013-01-05 05:22:00,39.3,-99.9,30.36,SSE,152,5.0,-999.0,0,-99.99,,,0.00,weatherlink.com 1.10,2013-01-05 10:22:00,
2013-01-05 05:37:00,39.1,-99.9,30.36,SE,132,4.0,-999.0,0,-99.99,,,0.00,weatherlink.com 1.10,2013-01-05 10:37:00,
2013-01-05 05:52:00,38.5,-99.9,30.37,SSW,198,7.0,-999.0,0,-99.99,,,0.00,weatherlink.com 1.10,2013-01-05 10:52:00,
2013-01-05 06:07:00,38.6,-99.9,30.37,SSE,156,6.0,-999.0,0,-99.99,,,0.00,weatherlink.com 1.10,2013-01-05 11:07:00,
2013-01-05 06:22:00,38.3,-99.9,30.37,SW,222,0.0,-999.0,0,-99.99,,,0.00,weatherlink.com 1.10,2013-01-05 11:22:00,
2013-01-05 06:38:00,37.8,-99.9,30.38,SSW,212,5.0,-999.0,0,-99.99,,,0.00,weatherlink.com 1.10,2013-01-05 11:38:00,
2013-01-05 06:53:00,37.7,-99.9,30.38,South,174,2.0,-999.0,0,-99.99,,,0.00,weatherlink.com 1.10,2013-01-05 11:53:00,
2013-01-05 07:08:00,37.2,-99.9,30.39,SSE,166,4.0,-999.0,0,-99.99,,,0.00,weatherlink.com 1.10,2013-01-05 12:08:00,
2013-01-05 07:23:00,36.7,-99.9,30.39,SSE,163,2.0,-999.0,0,-99.99,,,0.00,weatherlink.com 1.10,2013-01-05 12:23:00,
2013-01-05 07:38:00,36.7,-99.9,30.39,SW,233,1.0,-999.0,0,-99.99,,,0.00,weatherlink.com 1.10,2013-01-05 12:38:00,
2013-01-05 07:53:00,37.1,-99.9,30.40,SSW,206,4.0,-999.0,0,-99.99,,,0.00,weatherlink.com 1.10,2013-01-05 12:53:00,
2013-01-05 08:08:00,38.0,-44.0,30.41,SSE,164,2.0,-999.0,2,-99.99,,,0.00,weatherlink.com 1.10,2013-01-05 13:08:00,
2013-01-05 08:23:00,39.3,-6.0,30.41,South,173,6.0,-999.0,14,-99.99,,,0.00,weatherlink.com 1.10,2013-01-05 13:23:00,
2013-01-05 08:38:00,40.7,11.0,30.41,SSW,210,2.0,-999.0,30,-99.99,,,0.00,weatherlink.com 1.10,2013-01-05 13:38:00,
2013-01-05 08:53:00,41.9,17.0,30.42,SSE,153,4.0,-999.0,37,-99.99,,,0.00,weatherlink.com 1.10,2013-01-05 13:53:00,
2013-01-05 09:08:00,42.8,24.0,30.43,South,173,4.0,-999.0,47,-99.99,,,0.00,weatherlink.com 1.10,2013-01-05 14:08:00,
2013-01-05 09:23:00,43.6,25.0,30.43,SSE,161,2.0,-999.0,49,-99.99,,,0.00,weatherlink.com 1.10,2013-01-05 14:23:00,
2013-01-05 09:38:00,44.1,26.0,30.43,SE,142,4.0,-999.0,49,-99.99,,,0.00,weatherlink.com 1.10,2013-01-05 14:38:00,
2013-01-05 09:53:00,44.8,28.0,30.43,South,187,6.0,-999.0,52,-99.99,,,0.00,weatherlink.com 1.10,2013-01-05 14:53:00,
2013-01-05 10:09:00,45.4,28.0,30.43,SSW,195,4.0,-999.0,51,-99.99,,,0.00,weatherlink.com 1.10,2013-01-05 15:09:00,
2013-01-05 10:24:00,46.5,30.0,30.44,SW,219,4.0,-999.0,53,-99.99,,,0.00,weatherlink.com 1.10,2013-01-05 15:24:00,
2013-01-05 10:39:00,47.3,31.0,30.43,South,169,5.0,-999.0,54,-99.99,,,0.00,weatherlink.com 1.10,2013-01-05 15:39:00,
2013-01-05 10:54:00,48.1,32.0,30.43,South,178,4.0,-999.0,54,-99.99,,,0.00,weatherlink.com 1.10,2013-01-05 15:54:00,
2013-01-05 11:09:00,49.2,33.0,30.43,South,183,2.0,-999.0,54,-99.99,,,0.00,weatherlink.com 1.10,2013-01-05 16:09:00,
2013-01-05 11:24:00,48.8,32.0,30.42,SSW,194,0.0,-999.0,52,-99.99,,,0.00,weatherlink.com 1.10,2013-01-05 16:24:00,
2013-01-05 11:39:00,49.5,34.0,30.41,SSE,160,5.0,-999.0,55,-99.99,,,0.00,weatherlink.com 1.10,2013-01-05 16:39:00,
2013-01-05 11:54:00,50.2,34.0,30.41,SSW,207,2.0,-999.0,54,-99.99,,,0.00,weatherlink.com 1.10,2013-01-05 16:54:00,
2013-01-05 12:09:00,50.3,34.0,30.40,South,170,5.0,-999.0,54,-99.99,,,0.00,weatherlink.com 1.10,2013-01-05 17:09:00,
2013-01-05 12:24:00,50.8,34.0,30.39,WSW,242,4.0,-999.0,54,-99.99,,,0.00,weatherlink.com 1.10,2013-01-05 17:24:00,
2013-01-05 12:39:00,51.7,35.0,30.38,SW,220,2.0,-999.0,54,-99.99,,,0.00,weatherlink.com 1.10,2013-01-05 17:39:00,
2013-01-05 12:54:00,51.0,34.0,30.38,WSW,243,7.0,-999.0,52,-99.99,,,0.00,weatherlink.com 1.10,2013-01-05 17:54:00,
2013-01-05 13:09:00,51.1,34.0,30.37,South,190,3.0,-999.0,53,-99.99,,,0.00,weatherlink.com 1.10,2013-01-05 18:09:00,
2013-01-05 13:24:00,51.6,34.0,30.36,WSW,241,6.0,-999.0,52,-99.99,,,0.00,weatherlink.com 1.10,2013-01-05 18:24:00,
2013-01-05 13:40:00,51.2,34.0,30.36,West,261,7.0,-999.0,52,-99.99,,,0.00,weatherlink.com 1.10,2013-01-05 18:40:00,
2013-01-05 13:55:00,51.5,34.0,30.36,WSW,253,6.0,-999.0,51,-99.99,,,0.00,weatherlink.com 1.10,2013-01-05 18:55:00,
2013-01-05 14:10:00,51.5,34.0,30.35,West,259,2.0,-999.0,52,-99.99,,,0.00,weatherlink.com 1.10,2013-01-05 19:10:00,
2013-01-05 14:25:00,51.9,34.0,30.34,SW,215,0.0,-999.0,50,-99.99,,,0.00,weatherlink.com 1.10,2013-01-05 19:25:00,
2013-01-05 14:40:00,51.3,34.0,30.34,SW,236,8.0,-999.0,51,-99.99,,,0.00,weatherlink.com 1.10,2013-01-05 19:40:00,
2013-01-05 14:55:00,51.4,32.0,30.34,West,276,4.0,-999.0,47,-99.99,,,0.00,weatherlink.com 1.10,2013-01-05 19:55:00,
2013-01-05 15:10:00,51.4,33.0,30.34,SW,236,2.0,-999.0,50,-99.99,,,0.00,weatherlink.com 1.10,2013-01-05 20:10:00,
2013-01-05 15:25:00,51.1,30.0,30.34,WNW,296,2.0,-999.0,45,-99.99,,,0.00,weatherlink.com 1.10,2013-01-05 20:25:00,
2013-01-05 15:40:00,50.7,31.0,30.34,WSW,241,5.0,-999.0,48,-99.99,,,0.00,weatherlink.com 1.10,2013-01-05 20:40:00,
2013-01-05 15:55:00,50.7,32.0,30.35,WSW,255,2.0,-999.0,49,-99.99,,,0.00,weatherlink.com 1.10,2013-01-05 20:55:00,
2013-01-05 16:10:00,50.8,32.0,30.34,SW,232,5.0,-999.0,49,-99.99,,,0.00,weatherlink.com 1.10,2013-01-05 21:10:00,
2013-01-05 16:25:00,51.0,31.0,30.35,West,260,3.0,-999.0,46,-99.99,,,0.00,weatherlink.com 1.10,2013-01-05 21:25:00,
2013-01-05 16:40:00,51.0,31.0,30.35,West,269,2.0,-999.0,46,-99.99,,,0.00,weatherlink.com 1.10,2013-01-05 21:40:00,
2013-01-05 16:55:00,50.9,30.0,30.36,WSW,247,0.0,-999.0,45,-99.99,,,0.00,weatherlink.com 1.10,2013-01-05 21:55:00,
2013-01-05 17:10:00,50.4,28.0,30.35,WSW,243,0.0,-999.0,42,-99.99,,,0.00,weatherlink.com 1.10,2013-01-05 22:10:00,
2013-01-05 17:25:00,49.9,26.0,30.36,WSW,241,0.0,-999.0,40,-99.99,,,0.00,weatherlink.com 1.10,2013-01-05 22:25:00,
2013-01-05 17:40:00,49.5,19.0,30.35,WSW,241,0.0,-999.0,30,-99.99,,,0.00,weatherlink.com 1.10,2013-01-05 22:40:00,
2013-01-05 17:55:00,49.1,12.0,30.35,WSW,242,0.0,-999.0,22,-99.99,,,0.00,weatherlink.com 1.10,2013-01-05 22:55:00,
2013-01-05 18:10:00,49.0,9.0,30.36,WSW,241,0.0,-999.0,20,-99.99,,,0.00,weatherlink.com 1.10,2013-01-05 23:10:00,
2013-01-05 18:25:00,48.7,-2.0,30.34,WSW,242,0.0,-999.0,12,-99.99,,,0.00,weatherlink.com 1.10,2013-01-05 23:25:00,
2013-01-05 18:41:00,48.8,-4.0,30.35,WSW,242,0.0,-999.0,11,-99.99,,,0.00,weatherlink.com 1.10,2013-01-05 23:41:00,
2013-01-05 18:56:00,49.0,0.0,30.35,WSW,241,0.0,-999.0,13,-99.99,,,0.00,weatherlink.com 1.10,2013-01-05 23:56:00,
2013-01-05 19:11:00,49.3,10.0,30.35,WSW,242,0.0,-999.0,20,-99.99,,,0.00,weatherlink.com 1.10,2013-01-06 00:11:00,
2013-01-05 19:26:00,48.3,-99.9,30.36,WSW,241,0.0,-999.0,0,-99.99,,,0.00,weatherlink.com 1.10,2013-01-06 00:26:00,
2013-01-05 19:41:00,47.7,-99.9,30.36,WSW,241,0.0,-999.0,0,-99.99,,,0.00,weatherlink.com 1.10,2013-01-06 00:41:00,
2013-01-05 19:56:00,46.9,-99.9,30.35,WSW,241,0.0,-999.0,0,-99.99,,,0.00,weatherlink.com 1.10,2013-01-06 00:56:00,
2013-01-05 20:11:00,46.5,-99.9,30.36,WSW,242,0.0,-999.0,0,-99.99,,,0.00,weatherlink.com 1.10,2013-01-06 01:11:00,
2013-01-05 20:26:00,46.4,-99.9,30.35,WSW,242,0.0,-999.0,0,-99.99,,,0.00,weatherlink.com 1.10,2013-01-06 01:26:00,
2013-01-05 20:41:00,46.5,-99.9,30.33,WSW,241,0.0,-999.0,0,-99.99,,,0.00,weatherlink.com 1.10,2013-01-06 01:41:00,
2013-01-05 20:56:00,46.5,-99.9,30.34,SW,232,0.0,-999.0,0,-99.99,,,0.00,weatherlink.com 1.10,2013-01-06 01:56:00,
2013-01-05 21:11:00,46.3,-99.9,30.35,SW,232,0.0,-999.0,0,-99.99,,,0.00,weatherlink.com 1.10,2013-01-06 02:11:00,
2013-01-05 21:26:00,46.2,-99.9,30.36,SW,232,0.0,-999.0,0,-99.99,,,0.00,weatherlink.com 1.10,2013-01-06 02:26:00,
2013-01-05 21:41:00,46.3,-99.9,30.36,SW,232,0.0,-999.0,0,-99.99,,,0.00,weatherlink.com 1.10,2013-01-06 02:41:00,
2013-01-05 21:56:00,46.7,-99.9,30.34,SW,232,0.0,-999.0,0,-99.99,,,0.00,weatherlink.com 1.10,2013-01-06 02:56:00,
2013-01-05 22:12:00,46.7,-99.9,30.33,SW,232,0.0,-999.0,0,-99.99,,,0.00,weatherlink.com 1.10,2013-01-06 03:12:00,
2013-01-05 22:27:00,46.8,-99.9,30.33,South,176,0.0,-999.0,0,-99.99,,,0.00,weatherlink.com 1.10,2013-01-06 03:27:00,
2013-01-05 22:42:00,46.5,-99.9,30.33,South,172,0.0,-999.0,0,-99.99,,,0.00,weatherlink.com 1.10,2013-01-06 03:42:00,
2013-01-05 22:57:00,46.0,-99.9,30.32,South,172,0.0,-999.0,0,-99.99,,,0.00,weatherlink.com 1.10,2013-01-06 03:57:00,
2013-01-05 23:12:00,46.0,-99.9,30.32,South,172,2.0,-999.0,0,-99.99,,,0.00,weatherlink.com 1.10,2013-01-06 04:12:00,
2013-01-05 23:27:00,46.1,-99.9,30.32,SSE,168,0.0,-999.0,0,-99.99,,,0.00,weatherlink.com 1.10,2013-01-06 04:27:00,
2013-01-05 23:42:00,46.3,-99.9,30.32,SSE,167,0.0,-999.0,0,-99.99,,,0.00,weatherlink.com 1.10,2013-01-06 04:42:00,
2013-01-05 23:57:00,46.4,-99.9,30.32,SSE,167,0.0,-999.0,0,-99.99,,,0.00,weatherlink.com 1.10,2013-01-06 04:57:00,